sensor_id;sensor_type;location;lat;lon;timestamp;pressure;altitude;pressure_sealevel;temperature;humidity
48553;BME280;34335;51.566;6.994;2023-04-01T00:00:15;98729.84;;;8.52;100.00
48553;BME280;34335;51.566;6.994;2023-04-01T00:02:40;98726.38;;;8.53;100.00
48553;BME280;34335;51.566;6.994;2023-04-01T00:05:06;98730.78;;;8.49;100.00
48553;BME280;34335;51.566;6.994;2023-04-01T00:07:31;98726.47;;;8.48;100.00
48553;BME280;34335;51.566;6.994;2023-04-01T00:09:58;98718.72;;;8.47;100.00
48553;BME280;34335;51.566;6.994;2023-04-01T00:12:23;98736.91;;;8.43;100.00
48553;BME280;34335;51.566;6.994;2023-04-01T00:14:50;98724.78;;;8.47;100.00
48553;BME280;34335;51.566;6.994;2023-04-01T00:17:16;98722.25;;;8.42;100.00
48553;BME280;34335;51.566;6.994;2023-04-01T00:19:41;98721.28;;;8.50;100.00
48553;BME280;34335;51.566;6.994;2023-04-01T00:22:07;98723.00;;;8.49;100.00
48553;BME280;34335;51.566;6.994;2023-04-01T00:24:34;98723.13;;;8.43;100.00
48553;BME280;34335;51.566;6.994;2023-04-01T00:26:59;98724.84;;;8.42;100.00
48553;BME280;34335;51.566;6.994;2023-04-01T00:29:25;98720.66;;;8.38;100.00
48553;BME280;34335;51.566;6.994;2023-04-01T00:31:54;98719.78;;;8.39;100.00
48553;BME280;34335;51.566;6.994;2023-04-01T00:34:20;98727.50;;;8.41;100.00
48553;BME280;34335;51.566;6.994;2023-04-01T00:36:46;98729.25;;;8.40;100.00
48553;BME280;34335;51.566;6.994;2023-04-01T00:39:11;98720.59;;;8.41;100.00
48553;BME280;34335;51.566;6.994;2023-04-01T00:41:36;98716.28;;;8.40;100.00
48553;BME280;34335;51.566;6.994;2023-04-01T00:44:20;98720.59;;;8.41;100.00
48553;BME280;34335;51.566;6.994;2023-04-01T00:46:46;98714.53;;;8.41;100.00
48553;BME280;34335;51.566;6.994;2023-04-01T00:49:12;98719.63;;;8.46;100.00
48553;BME280;34335;51.566;6.994;2023-04-01T00:51:38;98721.38;;;8.43;100.00
48553;BME280;34335;51.566;6.994;2023-04-01T00:54:05;98720.50;;;8.45;100.00
48553;BME280;34335;51.566;6.994;2023-04-01T00:56:55;98720.53;;;8.43;100.00
48553;BME280;34335;51.566;6.994;2023-04-01T00:59:34;98717.81;;;8.49;100.00
48553;BME280;34335;51.566;6.994;2023-04-01T01:02:01;98714.44;;;8.46;100.00
48553;BME280;34335;51.566;6.994;2023-04-01T01:04:30;98708.53;;;8.39;100.00
48553;BME280;34335;51.566;6.994;2023-04-01T01:07:09;98718.06;;;8.38;100.00
48553;BME280;34335;51.566;6.994;2023-04-01T01:09:55;98711.19;;;8.37;100.00
48553;BME280;34335;51.566;6.994;2023-04-01T01:12:45;98716.34;;;8.37;100.00
48553;BME280;34335;51.566;6.994;2023-04-01T01:18:03;98715.53;;;8.35;100.00
48553;BME280;34335;51.566;6.994;2023-04-01T01:20:48;98721.75;;;8.28;100.00
48553;BME280;34335;51.566;6.994;2023-04-01T01:23:46;98712.16;;;8.32;100.00
48553;BME280;34335;51.566;6.994;2023-04-01T01:31:51;98701.03;;;8.28;100.00
48553;BME280;34335;51.566;6.994;2023-04-01T01:34:29;98694.16;;;8.27;100.00
48553;BME280;34335;51.566;6.994;2023-04-01T01:37:01;98698.28;;;8.36;100.00
48553;BME280;34335;51.566;6.994;2023-04-01T01:39:30;98701.75;;;8.35;100.00
48553;BME280;34335;51.566;6.994;2023-04-01T01:41:58;98704.34;;;8.33;100.00
48553;BME280;34335;51.566;6.994;2023-04-01T01:44:26;98690.53;;;8.34;100.00
48553;BME280;34335;51.566;6.994;2023-04-01T01:46:53;98688.03;;;8.31;100.00
48553;BME280;34335;51.566;6.994;2023-04-01T01:49:19;98681.88;;;8.35;100.00
48553;BME280;34335;51.566;6.994;2023-04-01T01:51:45;98687.06;;;8.35;100.00
48553;BME280;34335;51.566;6.994;2023-04-01T01:54:17;98684.50;;;8.34;100.00
48553;BME280;34335;51.566;6.994;2023-04-01T01:56:46;98687.22;;;8.29;100.00
48553;BME280;34335;51.566;6.994;2023-04-01T01:59:13;98692.34;;;8.31;100.00
48553;BME280;34335;51.566;6.994;2023-04-01T02:01:43;98688.88;;;8.32;100.00
48553;BME280;34335;51.566;6.994;2023-04-01T02:04:11;98688.91;;;8.30;100.00
48553;BME280;34335;51.566;6.994;2023-04-01T02:06:40;98684.69;;;8.26;100.00
48553;BME280;34335;51.566;6.994;2023-04-01T02:09:08;98687.31;;;8.24;100.00
48553;BME280;34335;51.566;6.994;2023-04-01T02:11:54;98688.97;;;8.27;100.00
48553;BME280;34335;51.566;6.994;2023-04-01T02:14:22;98684.63;;;8.27;100.00
48553;BME280;34335;51.566;6.994;2023-04-01T02:16:56;98701.09;;;8.25;100.00
48553;BME280;34335;51.566;6.994;2023-04-01T02:19:27;98691.63;;;8.24;100.00
48553;BME280;34335;51.566;6.994;2023-04-01T02:21:57;98695.19;;;8.20;100.00
48553;BME280;34335;51.566;6.994;2023-04-01T02:24:26;98701.09;;;8.26;100.00
48553;BME280;34335;51.566;6.994;2023-04-01T02:26:52;98689.03;;;8.24;100.00
48553;BME280;34335;51.566;6.994;2023-04-01T02:29:23;98695.00;;;8.27;100.00
48553;BME280;34335;51.566;6.994;2023-04-01T02:31:50;98696.69;;;8.29;100.00
48553;BME280;34335;51.566;6.994;2023-04-01T02:34:15;98693.31;;;8.26;100.00
48553;BME280;34335;51.566;6.994;2023-04-01T02:36:41;98701.78;;;8.33;100.00
48553;BME280;34335;51.566;6.994;2023-04-01T02:39:07;98701.97;;;8.25;100.00
48553;BME280;34335;51.566;6.994;2023-04-01T02:41:38;98700.16;;;8.29;100.00
48553;BME280;34335;51.566;6.994;2023-04-01T02:44:04;98707.94;;;8.29;100.00
48553;BME280;34335;51.566;6.994;2023-04-01T02:46:30;98708.00;;;8.26;100.00
48553;BME280;34335;51.566;6.994;2023-04-01T02:48:55;98725.22;;;8.27;100.00
48553;BME280;34335;51.566;6.994;2023-04-01T02:51:20;98705.34;;;8.27;100.00
48553;BME280;34335;51.566;6.994;2023-04-01T02:53:46;98716.63;;;8.26;100.00
48553;BME280;34335;51.566;6.994;2023-04-01T02:56:11;98711.41;;;8.28;100.00
48553;BME280;34335;51.566;6.994;2023-04-01T02:58:36;98713.16;;;8.26;100.00
48553;BME280;34335;51.566;6.994;2023-04-01T03:01:01;98726.28;;;8.18;100.00
48553;BME280;34335;51.566;6.994;2023-04-01T03:03:27;98723.69;;;8.18;100.00
48553;BME280;34335;51.566;6.994;2023-04-01T03:05:52;98713.34;;;8.18;100.00
48553;BME280;34335;51.566;6.994;2023-04-01T03:08:20;98725.50;;;8.16;100.00
48553;BME280;34335;51.566;6.994;2023-04-01T03:10:45;98732.34;;;8.19;100.00
48553;BME280;34335;51.566;6.994;2023-04-01T03:13:11;98734.16;;;8.14;100.00
48553;BME280;34335;51.566;6.994;2023-04-01T03:15:36;98731.56;;;8.15;100.00
48553;BME280;34335;51.566;6.994;2023-04-01T03:18:01;98734.09;;;8.17;100.00
48553;BME280;34335;51.566;6.994;2023-04-01T03:20:28;98738.44;;;8.15;100.00
48553;BME280;34335;51.566;6.994;2023-04-01T03:22:53;98733.38;;;8.11;100.00
48553;BME280;34335;51.566;6.994;2023-04-01T03:25:18;98738.44;;;8.16;100.00
48553;BME280;34335;51.566;6.994;2023-04-01T03:27:44;98733.31;;;8.13;100.00
48553;BME280;34335;51.566;6.994;2023-04-01T03:30:10;98740.16;;;8.17;100.00
48553;BME280;34335;51.566;6.994;2023-04-01T03:32:35;98742.84;;;8.13;100.00
48553;BME280;34335;51.566;6.994;2023-04-01T03:35:00;98742.78;;;8.14;100.00
48553;BME280;34335;51.566;6.994;2023-04-01T03:37:26;98744.50;;;8.14;100.00
48553;BME280;34335;51.566;6.994;2023-04-01T03:39:51;98739.34;;;8.14;100.00
48553;BME280;34335;51.566;6.994;2023-04-01T03:42:17;98741.09;;;8.13;100.00
48553;BME280;34335;51.566;6.994;2023-04-01T03:44:42;98733.28;;;8.15;100.00
48553;BME280;34335;51.566;6.994;2023-04-01T03:47:07;98738.44;;;8.16;100.00
48553;BME280;34335;51.566;6.994;2023-04-01T03:49:34;98736.75;;;8.14;100.00
48553;BME280;34335;51.566;6.994;2023-04-01T03:51:59;98740.97;;;8.18;100.00
48553;BME280;34335;51.566;6.994;2023-04-01T03:54:25;98734.97;;;8.16;100.00
48553;BME280;34335;51.566;6.994;2023-04-01T03:56:50;98741.91;;;8.14;100.00
48553;BME280;34335;51.566;6.994;2023-04-01T03:59:15;98743.63;;;8.16;100.00
48553;BME280;34335;51.566;6.994;2023-04-01T04:01:41;98741.03;;;8.15;100.00
48553;BME280;34335;51.566;6.994;2023-04-01T04:04:06;98741.88;;;8.17;100.00
48553;BME280;34335;51.566;6.994;2023-04-01T04:06:32;98749.56;;;8.20;100.00
48553;BME280;34335;51.566;6.994;2023-04-01T04:08:58;98746.09;;;8.21;100.00
48553;BME280;34335;51.566;6.994;2023-04-01T04:11:23;98746.91;;;8.23;100.00
48553;BME280;34335;51.566;6.994;2023-04-01T04:13:49;98741.81;;;8.20;100.00
48553;BME280;34335;51.566;6.994;2023-04-01T04:16:15;98749.56;;;8.20;100.00
48553;BME280;34335;51.566;6.994;2023-04-01T04:18:40;98748.69;;;8.21;100.00
48553;BME280;34335;51.566;6.994;2023-04-01T04:21:06;98742.63;;;8.22;100.00
48553;BME280;34335;51.566;6.994;2023-04-01T04:23:32;98752.16;;;8.20;100.00
48553;BME280;34335;51.566;6.994;2023-04-01T04:26:01;98755.47;;;8.26;100.00
48553;BME280;34335;51.566;6.994;2023-04-01T04:28:27;98750.34;;;8.23;100.00
48553;BME280;34335;51.566;6.994;2023-04-01T04:30:53;98760.72;;;8.23;100.00
48553;BME280;34335;51.566;6.994;2023-04-01T04:33:19;98758.97;;;8.24;100.00
48553;BME280;34335;51.566;6.994;2023-04-01T04:35:44;98765.09;;;8.20;100.00
48553;BME280;34335;51.566;6.994;2023-04-01T04:38:10;98760.75;;;8.20;100.00
48553;BME280;34335;51.566;6.994;2023-04-01T04:40:37;98757.28;;;8.21;100.00
48553;BME280;34335;51.566;6.994;2023-04-01T04:43:03;98762.53;;;8.20;100.00
48553;BME280;34335;51.566;6.994;2023-04-01T04:45:28;98757.34;;;8.18;100.00
48553;BME280;34335;51.566;6.994;2023-04-01T04:47:53;98767.66;;;8.21;100.00
48553;BME280;34335;51.566;6.994;2023-04-01T04:50:19;98769.47;;;8.18;100.00
48553;BME280;34335;51.566;6.994;2023-04-01T04:52:44;98771.16;;;8.19;100.00
48553;BME280;34335;51.566;6.994;2023-04-01T04:55:10;98765.06;;;8.21;100.00
48553;BME280;34335;51.566;6.994;2023-04-01T04:57:35;98770.19;;;8.23;100.00
48553;BME280;34335;51.566;6.994;2023-04-01T05:00:00;98772.78;;;8.24;100.00
48553;BME280;34335;51.566;6.994;2023-04-01T05:02:25;98777.22;;;8.18;100.00
48553;BME280;34335;51.566;6.994;2023-04-01T05:04:51;98777.19;;;8.21;100.00
48553;BME280;34335;51.566;6.994;2023-04-01T05:07:16;98778.88;;;8.22;100.00
48553;BME280;34335;51.566;6.994;2023-04-01T05:09:41;98782.25;;;8.24;100.00
48553;BME280;34335;51.566;6.994;2023-04-01T05:12:07;98785.72;;;8.23;100.00
48553;BME280;34335;51.566;6.994;2023-04-01T05:14:32;98772.00;;;8.21;100.00
48553;BME280;34335;51.566;6.994;2023-04-01T05:16:57;98771.91;;;8.24;100.00
48553;BME280;34335;51.566;6.994;2023-04-01T05:19:22;98780.59;;;8.21;100.00
48553;BME280;34335;51.566;6.994;2023-04-01T05:21:48;98777.88;;;8.27;100.00
48553;BME280;34335;51.566;6.994;2023-04-01T05:24:13;98783.13;;;8.24;100.00
48553;BME280;34335;51.566;6.994;2023-04-01T05:26:38;98782.22;;;8.27;100.00
48553;BME280;34335;51.566;6.994;2023-04-01T05:29:04;98785.69;;;8.26;100.00
48553;BME280;34335;51.566;6.994;2023-04-01T05:31:30;98791.78;;;8.23;100.00
48553;BME280;34335;51.566;6.994;2023-04-01T05:33:55;98785.69;;;8.26;100.00
48553;BME280;34335;51.566;6.994;2023-04-01T05:36:21;98787.44;;;8.24;100.00
48553;BME280;34335;51.566;6.994;2023-04-01T05:38:46;98786.56;;;8.25;100.00
48553;BME280;34335;51.566;6.994;2023-04-01T05:41:13;98790.84;;;8.26;100.00
48553;BME280;34335;51.566;6.994;2023-04-01T05:43:39;98802.03;;;8.28;100.00
48553;BME280;34335;51.566;6.994;2023-04-01T05:46:05;98799.50;;;8.25;100.00
48553;BME280;34335;51.566;6.994;2023-04-01T05:48:30;98799.44;;;8.28;100.00
48553;BME280;34335;51.566;6.994;2023-04-01T05:50:55;98796.03;;;8.26;100.00
48553;BME280;34335;51.566;6.994;2023-04-01T05:53:21;98796.03;;;8.26;100.00
48553;BME280;34335;51.566;6.994;2023-04-01T05:55:47;98795.97;;;8.29;100.00
48553;BME280;34335;51.566;6.994;2023-04-01T05:58:12;98801.16;;;8.27;100.00
48553;BME280;34335;51.566;6.994;2023-04-01T06:00:38;98803.88;;;8.23;100.00
48553;BME280;34335;51.566;6.994;2023-04-01T06:03:03;98803.06;;;8.21;100.00
48553;BME280;34335;51.566;6.994;2023-04-01T06:05:30;98803.06;;;8.21;100.00
48553;BME280;34335;51.566;6.994;2023-04-01T06:08:10;98814.25;;;8.21;100.00
48553;BME280;34335;51.566;6.994;2023-04-01T06:13:47;98811.72;;;8.20;100.00
48553;BME280;34335;51.566;6.994;2023-04-01T06:16:46;98810.94;;;8.15;100.00
48553;BME280;34335;51.566;6.994;2023-04-01T06:22:13;98823.09;;;8.13;100.00
48553;BME280;34335;51.566;6.994;2023-04-01T06:27:41;98816.94;;;8.17;100.00
48553;BME280;34335;51.566;6.994;2023-04-01T06:30:46;98823.78;;;8.21;100.00
48553;BME280;34335;51.566;6.994;2023-04-01T06:33:23;98823.78;;;8.21;100.00
48553;BME280;34335;51.566;6.994;2023-04-01T06:38:53;98833.22;;;8.23;100.00
48553;BME280;34335;51.566;6.994;2023-04-01T06:54:52;98839.25;;;8.24;100.00
48553;BME280;34335;51.566;6.994;2023-04-01T06:57:26;98841.72;;;8.29;100.00
48553;BME280;34335;51.566;6.994;2023-04-01T06:59:57;98841.81;;;8.25;100.00
48553;BME280;34335;51.566;6.994;2023-04-01T07:02:32;98847.00;;;8.25;100.00
48553;BME280;34335;51.566;6.994;2023-04-01T07:05:00;98846.06;;;8.28;100.00
48553;BME280;34335;51.566;6.994;2023-04-01T07:10:03;98846.22;;;8.22;100.00
48553;BME280;34335;51.566;6.994;2023-04-01T07:12:40;98851.28;;;8.26;100.00
48553;BME280;34335;51.566;6.994;2023-04-01T07:15:19;98855.66;;;8.24;100.00
48553;BME280;34335;51.566;6.994;2023-04-01T07:17:47;98846.16;;;8.23;100.00
48553;BME280;34335;51.566;6.994;2023-04-01T07:20:21;98856.44;;;8.28;100.00
48553;BME280;34335;51.566;6.994;2023-04-01T07:22:49;98854.72;;;8.27;100.00
48553;BME280;34335;51.566;6.994;2023-04-01T07:25:18;98861.59;;;8.28;100.00
48553;BME280;34335;51.566;6.994;2023-04-01T07:27:45;98865.91;;;8.27;100.00
48553;BME280;34335;51.566;6.994;2023-04-01T07:30:18;98880.63;;;8.27;100.00
48553;BME280;34335;51.566;6.994;2023-04-01T07:47:15;98882.47;;;8.22;100.00
48553;BME280;34335;51.566;6.994;2023-04-01T07:52:53;98882.47;;;8.22;100.00
48553;BME280;34335;51.566;6.994;2023-04-01T07:55:26;98891.81;;;8.29;100.00
48553;BME280;34335;51.566;6.994;2023-04-01T07:58:15;98890.00;;;8.33;100.00
48553;BME280;34335;51.566;6.994;2023-04-01T08:00:50;98885.75;;;8.29;100.00
48553;BME280;34335;51.566;6.994;2023-04-01T08:03:31;98894.31;;;8.32;100.00
48553;BME280;34335;51.566;6.994;2023-04-01T08:06:00;98900.41;;;8.31;100.00
48553;BME280;34335;51.566;6.994;2023-04-01T08:08:43;98903.84;;;8.32;100.00
48553;BME280;34335;51.566;6.994;2023-04-01T08:14:08;98908.16;;;8.31;100.00
48553;BME280;34335;51.566;6.994;2023-04-01T08:22:29;98913.34;;;8.31;100.00
48553;BME280;34335;51.566;6.994;2023-04-01T08:24:57;98915.84;;;8.36;100.00
48553;BME280;34335;51.566;6.994;2023-04-01T08:27:31;98919.97;;;8.45;100.00
48553;BME280;34335;51.566;6.994;2023-04-01T08:33:27;98927.75;;;8.45;100.00
48553;BME280;34335;51.566;6.994;2023-04-01T08:36:02;98932.00;;;8.49;100.00
48553;BME280;34335;51.566;6.994;2023-04-01T08:38:36;98929.50;;;8.42;100.00
48553;BME280;34335;51.566;6.994;2023-04-01T08:41:26;98933.81;;;8.43;100.00
48553;BME280;34335;51.566;6.994;2023-04-01T08:44:21;98931.16;;;8.47;100.00
48553;BME280;34335;51.566;6.994;2023-04-01T08:47:13;98942.25;;;8.55;100.00
48553;BME280;34335;51.566;6.994;2023-04-01T08:49:57;98944.94;;;8.50;100.00
48553;BME280;34335;51.566;6.994;2023-04-01T08:52:51;98948.28;;;8.55;100.00
48553;BME280;34335;51.566;6.994;2023-04-01T08:55:27;98943.94;;;8.56;100.00
48553;BME280;34335;51.566;6.994;2023-04-01T09:01:14;98959.63;;;8.50;100.00
48553;BME280;34335;51.566;6.994;2023-04-01T09:03:59;98964.72;;;8.53;100.00
48553;BME280;34335;51.566;6.994;2023-04-01T09:10:06;98971.44;;;8.63;100.00
48553;BME280;34335;51.566;6.994;2023-04-01T09:18:29;98971.38;;;8.66;100.00
48553;BME280;34335;51.566;6.994;2023-04-01T09:23:47;98983.25;;;8.77;100.00
48553;BME280;34335;51.566;6.994;2023-04-01T09:26:29;98985.78;;;8.80;100.00
48553;BME280;34335;51.566;6.994;2023-04-01T09:29:22;98983.31;;;8.75;100.00
48553;BME280;34335;51.566;6.994;2023-04-01T09:37:19;98995.03;;;8.92;100.00
48553;BME280;34335;51.566;6.994;2023-04-01T09:45:01;99004.53;;;8.93;100.00
48553;BME280;34335;51.566;6.994;2023-04-01T09:50:31;99007.13;;;8.93;100.00
48553;BME280;34335;51.566;6.994;2023-04-01T10:16:26;99025.03;;;9.03;100.00
48553;BME280;34335;51.566;6.994;2023-04-01T10:19:14;99030.16;;;9.05;100.00
48553;BME280;34335;51.566;6.994;2023-04-01T10:22:02;99031.88;;;9.06;100.00
48553;BME280;34335;51.566;6.994;2023-04-01T10:25:05;99038.88;;;9.02;100.00
48553;BME280;34335;51.566;6.994;2023-04-01T10:28:44;99036.03;;;9.15;100.00
48553;BME280;34335;51.566;6.994;2023-04-01T10:48:52;99061.09;;;9.14;100.00
48553;BME280;34335;51.566;6.994;2023-04-01T11:06:30;99065.25;;;9.23;100.00
48553;BME280;34335;51.566;6.994;2023-04-01T11:09:26;99065.31;;;9.20;100.00
48553;BME280;34335;51.566;6.994;2023-04-01T11:15:03;99076.34;;;9.30;100.00
48553;BME280;34335;51.566;6.994;2023-04-01T11:17:52;99085.16;;;9.23;100.00
48553;BME280;34335;51.566;6.994;2023-04-01T11:20:42;99093.69;;;9.28;100.00
48553;BME280;34335;51.566;6.994;2023-04-01T11:23:34;99083.16;;;9.34;100.00
48553;BME280;34335;51.566;6.994;2023-04-01T11:34:35;99089.94;;;9.41;100.00
48553;BME280;34335;51.566;6.994;2023-04-01T11:37:23;99095.91;;;9.45;100.00
48553;BME280;34335;51.566;6.994;2023-04-01T11:42:49;99109.25;;;9.28;100.00
48553;BME280;34335;51.566;6.994;2023-04-01T11:45:32;99116.97;;;9.29;100.00
48553;BME280;34335;51.566;6.994;2023-04-01T11:53:47;99130.81;;;9.30;100.00
48553;BME280;34335;51.566;6.994;2023-04-01T11:59:41;99138.56;;;9.31;100.00
48553;BME280;34335;51.566;6.994;2023-04-01T12:02:32;99147.91;;;9.39;100.00
48553;BME280;34335;51.566;6.994;2023-04-01T12:18:33;99159.03;;;9.47;100.00
48553;BME280;34335;51.566;6.994;2023-04-01T12:27:34;99166.72;;;9.50;100.00
48553;BME280;34335;51.566;6.994;2023-04-01T12:35:53;99186.44;;;9.57;100.00
48553;BME280;34335;51.566;6.994;2023-04-01T12:38:30;99183.84;;;9.57;100.00
48553;BME280;34335;51.566;6.994;2023-04-01T12:49:53;99199.25;;;9.66;100.00
48553;BME280;34335;51.566;6.994;2023-04-01T13:06:08;99219.16;;;9.66;100.00
48553;BME280;34335;51.566;6.994;2023-04-01T13:11:50;99224.44;;;9.61;100.00
48553;BME280;34335;51.566;6.994;2023-04-01T13:17:27;99222.75;;;9.60;100.00
48553;BME280;34335;51.566;6.994;2023-04-01T13:20:01;99231.50;;;9.56;100.00
48553;BME280;34335;51.566;6.994;2023-04-01T13:28:15;99242.63;;;9.61;100.00
48553;BME280;34335;51.566;6.994;2023-04-01T13:31:36;99243.66;;;9.52;100.00
48553;BME280;34335;51.566;6.994;2023-04-01T13:33:50;99250.47;;;9.58;100.00
48553;BME280;34335;51.566;6.994;2023-04-01T13:39:29;99250.53;;;9.55;100.00
48553;BME280;34335;51.566;6.994;2023-04-01T13:44:56;99251.41;;;9.54;100.00
48553;BME280;34335;51.566;6.994;2023-04-01T13:47:59;99262.69;;;9.53;100.00
48553;BME280;34335;51.566;6.994;2023-04-01T13:58:54;99269.69;;;9.49;100.00
48553;BME280;34335;51.566;6.994;2023-04-01T14:04:22;99281.59;;;9.58;100.00
48553;BME280;34335;51.566;6.994;2023-04-01T14:10:02;99286.00;;;9.56;100.00
48553;BME280;34335;51.566;6.994;2023-04-01T14:12:41;99284.16;;;9.61;100.00
48553;BME280;34335;51.566;6.994;2023-04-01T14:15:29;99292.63;;;9.71;100.00
48553;BME280;34335;51.566;6.994;2023-04-01T14:20:53;99296.19;;;9.65;100.00
48553;BME280;34335;51.566;6.994;2023-04-01T14:34:30;99315.13;;;9.71;100.00
48553;BME280;34335;51.566;6.994;2023-04-01T14:37:15;99306.81;;;9.53;100.00
48553;BME280;34335;51.566;6.994;2023-04-01T14:50:51;99320.19;;;9.77;100.00
48553;BME280;34335;51.566;6.994;2023-04-01T14:53:29;99320.03;;;9.85;100.00
48553;BME280;34335;51.566;6.994;2023-04-01T14:55:58;99327.63;;;9.94;100.00
48553;BME280;34335;51.566;6.994;2023-04-01T14:58:44;99325.38;;;9.77;100.00
48553;BME280;34335;51.566;6.994;2023-04-01T15:10:06;99341.72;;;9.82;100.00
48553;BME280;34335;51.566;6.994;2023-04-01T15:17:58;99348.78;;;9.75;100.00
48553;BME280;34335;51.566;6.994;2023-04-01T15:23:26;99353.81;;;9.83;100.00
48553;BME280;34335;51.566;6.994;2023-04-01T15:31:45;99364.25;;;9.80;100.00
48553;BME280;34335;51.566;6.994;2023-04-01T15:40:02;99369.31;;;9.86;100.00
48553;BME280;34335;51.566;6.994;2023-04-01T15:45:31;99378.00;;;9.87;100.00
48553;BME280;34335;51.566;6.994;2023-04-01T16:00:25;99390.06;;;9.41;100.00
48553;BME280;34335;51.566;6.994;2023-04-01T16:03:17;99400.34;;;9.47;100.00
48553;BME280;34335;51.566;6.994;2023-04-01T16:06:14;99395.13;;;9.48;100.00
48553;BME280;34335;51.566;6.994;2023-04-01T16:14:31;99409.03;;;9.46;100.00
48553;BME280;34335;51.566;6.994;2023-04-01T16:25:36;99417.72;;;9.42;100.00
48553;BME280;34335;51.566;6.994;2023-04-01T16:28:30;99420.41;;;9.37;100.00
48553;BME280;34335;51.566;6.994;2023-04-01T16:31:09;99429.84;;;9.40;100.00
48553;BME280;34335;51.566;6.994;2023-04-01T16:33:46;99434.22;;;9.39;100.00
48553;BME280;34335;51.566;6.994;2023-04-01T16:36:33;99439.41;;;9.39;100.00
48553;BME280;34335;51.566;6.994;2023-04-01T16:44:32;99443.56;;;9.48;100.00
48553;BME280;34335;51.566;6.994;2023-04-01T16:47:15;99453.03;;;9.52;100.00
48553;BME280;34335;51.566;6.994;2023-04-01T16:49:50;99457.50;;;9.44;100.00
48553;BME280;34335;51.566;6.994;2023-04-01T16:52:40;99469.50;;;9.48;100.00
48553;BME280;34335;51.566;6.994;2023-04-01T16:55:15;99472.03;;;9.54;100.00
48553;BME280;34335;51.566;6.994;2023-04-01T16:57:52;99474.69;;;9.48;100.00
48553;BME280;34335;51.566;6.994;2023-04-01T17:00:30;99480.63;;;9.58;100.00
48553;BME280;34335;51.566;6.994;2023-04-01T17:03:11;99479.75;;;9.57;100.00
48553;BME280;34335;51.566;6.994;2023-04-01T17:08:21;99484.91;;;9.60;100.00
48553;BME280;34335;51.566;6.994;2023-04-01T17:11:16;99492.88;;;9.49;100.00
48553;BME280;34335;51.566;6.994;2023-04-01T17:13:47;99499.75;;;9.52;100.00
48553;BME280;34335;51.566;6.994;2023-04-01T17:16:28;99505.88;;;9.46;100.00
48553;BME280;34335;51.566;6.994;2023-04-01T17:22:34;99508.50;;;9.45;100.00
48553;BME280;34335;51.566;6.994;2023-04-01T17:27:51;99516.28;;;9.43;100.00
48553;BME280;34335;51.566;6.994;2023-04-01T17:33:42;99527.50;;;9.47;100.00
48553;BME280;34335;51.566;6.994;2023-04-01T17:36:58;99531.94;;;9.40;100.00
48553;BME280;34335;51.566;6.994;2023-04-01T17:39:49;99532.81;;;9.39;100.00
48553;BME280;34335;51.566;6.994;2023-04-01T17:42:25;99539.66;;;9.43;100.00
48553;BME280;34335;51.566;6.994;2023-04-01T17:45:01;99541.44;;;9.41;100.00
48553;BME280;34335;51.566;6.994;2023-04-01T17:47:36;99544.03;;;9.41;100.00
48553;BME280;34335;51.566;6.994;2023-04-01T17:50:24;99554.38;;;9.43;100.00
48553;BME280;34335;51.566;6.994;2023-04-01T17:52:56;99557.88;;;9.39;100.00
48553;BME280;34335;51.566;6.994;2023-04-01T17:55:45;99562.34;;;9.32;100.00
48553;BME280;34335;51.566;6.994;2023-04-01T18:04:00;99567.59;;;9.27;100.00
48553;BME280;34335;51.566;6.994;2023-04-01T18:06:34;99570.13;;;9.30;100.00
48553;BME280;34335;51.566;6.994;2023-04-01T18:15:27;99583.09;;;9.32;100.00
48553;BME280;34335;51.566;6.994;2023-04-01T18:18:15;99590.03;;;9.30;100.00
48553;BME280;34335;51.566;6.994;2023-04-01T18:23:46;99596.06;;;9.30;100.00
48553;BME280;34335;51.566;6.994;2023-04-01T18:26:21;99600.41;;;9.30;100.00
48553;BME280;34335;51.566;6.994;2023-04-01T18:31:46;99625.44;;;9.32;100.00
48553;BME280;34335;51.566;6.994;2023-04-01T18:38:06;99626.34;;;9.28;100.00
48553;BME280;34335;51.566;6.994;2023-04-01T18:40:30;99635.00;;;9.29;100.00
48553;BME280;34335;51.566;6.994;2023-04-01T18:45:51;99646.28;;;9.26;100.00
48553;BME280;34335;51.566;6.994;2023-04-01T18:51:13;99654.94;;;9.24;100.00
48553;BME280;34335;51.566;6.994;2023-04-01T18:54:02;99660.06;;;9.28;100.00
48553;BME280;34335;51.566;6.994;2023-04-01T18:56:34;99669.53;;;9.35;100.00
48553;BME280;34335;51.566;6.994;2023-04-01T18:59:06;99666.94;;;9.35;100.00
48553;BME280;34335;51.566;6.994;2023-04-01T19:01:51;99673.97;;;9.27;100.00
48553;BME280;34335;51.566;6.994;2023-04-01T19:09:44;99698.00;;;9.39;100.00
48553;BME280;34335;51.566;6.994;2023-04-01T19:12:23;99701.41;;;9.47;100.00
48553;BME280;34335;51.566;6.994;2023-04-01T19:15:18;99711.78;;;9.45;100.00
48553;BME280;34335;51.566;6.994;2023-04-01T19:18:28;99716.97;;;9.47;100.00
48553;BME280;34335;51.566;6.994;2023-04-01T19:26:29;99735.28;;;9.34;100.00
48553;BME280;34335;51.566;6.994;2023-04-01T19:37:45;99755.41;;;9.12;100.00
48553;BME280;34335;51.566;6.994;2023-04-01T19:40:37;99759.66;;;9.19;100.00
48553;BME280;34335;51.566;6.994;2023-04-01T19:43:28;99758.84;;;9.13;100.00
48553;BME280;34335;51.566;6.994;2023-04-01T19:52:09;99769.25;;;9.10;100.00
48553;BME280;34335;51.566;6.994;2023-04-01T19:54:46;99784.72;;;9.19;100.00
48553;BME280;34335;51.566;6.994;2023-04-01T19:59:55;99800.44;;;9.03;100.00
48553;BME280;34335;51.566;6.994;2023-04-01T20:08:32;99818.97;;;8.55;100.00
48553;BME280;34335;51.566;6.994;2023-04-01T20:11:11;99824.13;;;8.57;100.00
48553;BME280;34335;51.566;6.994;2023-04-01T20:14:07;99828.38;;;8.67;100.00
48553;BME280;34335;51.566;6.994;2023-04-01T20:19:41;99836.19;;;8.61;100.00
48553;BME280;34335;51.566;6.994;2023-04-01T20:24:51;99853.44;;;8.65;100.00
48553;BME280;34335;51.566;6.994;2023-04-01T20:27:22;99853.44;;;8.67;100.00
48553;BME280;34335;51.566;6.994;2023-04-01T20:35:51;99868.28;;;8.41;100.00
48553;BME280;34335;51.566;6.994;2023-04-01T20:47:12;99902.88;;;8.28;100.00
48553;BME280;34335;51.566;6.994;2023-04-01T20:49:53;99903.72;;;8.24;100.00